sensor_id;sensor_type;location;lat;lon;timestamp;P1;durP1;ratioP1;P2;durP2;ratioP2
8831;SDS011;4452;50.756;4.472;2024-03-22T00:00:57;78.03;;;32.17;;
8831;SDS011;4452;50.756;4.472;2024-03-22T00:03:22;73.28;;;30.23;;
8831;SDS011;4452;50.756;4.472;2024-03-22T00:05:48;70.68;;;31.67;;
8831;SDS011;4452;50.756;4.472;2024-03-22T00:08:14;54.40;;;24.90;;
8831;SDS011;4452;50.756;4.472;2024-03-22T00:10:40;76.18;;;33.00;;
8831;SDS011;4452;50.756;4.472;2024-03-22T00:13:05;75.03;;;35.30;;
8831;SDS011;4452;50.756;4.472;2024-03-22T00:15:31;69.68;;;31.33;;
8831;SDS011;4452;50.756;4.472;2024-03-22T00:17:57;71.72;;;32.55;;
8831;SDS011;4452;50.756;4.472;2024-03-22T00:20:22;63.42;;;31.45;;
8831;SDS011;4452;50.756;4.472;2024-03-22T00:22:48;51.38;;;23.85;;
8831;SDS011;4452;50.756;4.472;2024-03-22T00:25:14;60.22;;;26.90;;
8831;SDS011;4452;50.756;4.472;2024-03-22T00:27:39;42.42;;;22.50;;
8831;SDS011;4452;50.756;4.472;2024-03-22T00:30:05;63.38;;;27.02;;
8831;SDS011;4452;50.756;4.472;2024-03-22T00:32:31;55.13;;;26.98;;
8831;SDS011;4452;50.756;4.472;2024-03-22T00:34:56;64.10;;;29.60;;
8831;SDS011;4452;50.756;4.472;2024-03-22T00:37:22;59.20;;;27.65;;
8831;SDS011;4452;50.756;4.472;2024-03-22T00:39:48;56.42;;;28.70;;
8831;SDS011;4452;50.756;4.472;2024-03-22T00:42:13;62.50;;;30.52;;
8831;SDS011;4452;50.756;4.472;2024-03-22T00:44:39;60.90;;;28.08;;
8831;SDS011;4452;50.756;4.472;2024-03-22T00:47:05;65.95;;;32.00;;
8831;SDS011;4452;50.756;4.472;2024-03-22T00:49:31;38.42;;;21.17;;
8831;SDS011;4452;50.756;4.472;2024-03-22T00:51:56;68.47;;;32.13;;
8831;SDS011;4452;50.756;4.472;2024-03-22T00:54:22;66.95;;;31.25;;
8831;SDS011;4452;50.756;4.472;2024-03-22T00:56:48;67.72;;;28.77;;
8831;SDS011;4452;50.756;4.472;2024-03-22T00:59:14;60.47;;;29.70;;
8831;SDS011;4452;50.756;4.472;2024-03-22T01:01:40;60.22;;;28.33;;
8831;SDS011;4452;50.756;4.472;2024-03-22T01:04:05;60.83;;;28.70;;
8831;SDS011;4452;50.756;4.472;2024-03-22T01:06:34;69.63;;;27.13;;
8831;SDS011;4452;50.756;4.472;2024-03-22T01:09:00;56.00;;;26.08;;
8831;SDS011;4452;50.756;4.472;2024-03-22T01:11:25;56.13;;;28.13;;
8831;SDS011;4452;50.756;4.472;2024-03-22T01:13:51;45.95;;;23.38;;
8831;SDS011;4452;50.756;4.472;2024-03-22T01:16:17;60.42;;;29.33;;
8831;SDS011;4452;50.756;4.472;2024-03-22T01:18:42;56.92;;;29.90;;
8831;SDS011;4452;50.756;4.472;2024-03-22T01:21:08;61.10;;;29.05;;
8831;SDS011;4452;50.756;4.472;2024-03-22T01:23:34;44.15;;;21.48;;
8831;SDS011;4452;50.756;4.472;2024-03-22T01:25:59;61.72;;;30.00;;
8831;SDS011;4452;50.756;4.472;2024-03-22T01:28:25;61.38;;;27.90;;
8831;SDS011;4452;50.756;4.472;2024-03-22T01:30:50;56.67;;;25.08;;
8831;SDS011;4452;50.756;4.472;2024-03-22T01:33:16;57.28;;;26.75;;
8831;SDS011;4452;50.756;4.472;2024-03-22T01:35:42;46.55;;;21.70;;
8831;SDS011;4452;50.756;4.472;2024-03-22T01:38:07;47.92;;;24.40;;
8831;SDS011;4452;50.756;4.472;2024-03-22T01:40:33;57.47;;;28.30;;
8831;SDS011;4452;50.756;4.472;2024-03-22T01:42:59;56.53;;;27.13;;
8831;SDS011;4452;50.756;4.472;2024-03-22T01:45:25;64.53;;;26.58;;
8831;SDS011;4452;50.756;4.472;2024-03-22T01:47:54;57.03;;;28.42;;
8831;SDS011;4452;50.756;4.472;2024-03-22T01:50:21;43.35;;;22.50;;
8831;SDS011;4452;50.756;4.472;2024-03-22T01:52:47;56.03;;;25.98;;
8831;SDS011;4452;50.756;4.472;2024-03-22T01:55:12;59.58;;;30.17;;
8831;SDS011;4452;50.756;4.472;2024-03-22T01:57:39;57.25;;;27.67;;
8831;SDS011;4452;50.756;4.472;2024-03-22T02:00:05;65.85;;;29.50;;
8831;SDS011;4452;50.756;4.472;2024-03-22T02:02:33;64.30;;;29.00;;
8831;SDS011;4452;50.756;4.472;2024-03-22T02:04:59;44.00;;;21.83;;
8831;SDS011;4452;50.756;4.472;2024-03-22T02:07:36;55.75;;;27.75;;
8831;SDS011;4452;50.756;4.472;2024-03-22T02:10:01;48.55;;;21.88;;
8831;SDS011;4452;50.756;4.472;2024-03-22T02:12:27;56.00;;;25.83;;
8831;SDS011;4452;50.756;4.472;2024-03-22T02:14:53;49.17;;;24.27;;
8831;SDS011;4452;50.756;4.472;2024-03-22T02:17:18;45.22;;;21.83;;
8831;SDS011;4452;50.756;4.472;2024-03-22T02:19:44;61.97;;;25.65;;
8831;SDS011;4452;50.756;4.472;2024-03-22T02:22:10;49.45;;;22.50;;
8831;SDS011;4452;50.756;4.472;2024-03-22T02:24:35;54.03;;;27.25;;
8831;SDS011;4452;50.756;4.472;2024-03-22T02:27:01;52.83;;;21.55;;
8831;SDS011;4452;50.756;4.472;2024-03-22T02:29:26;46.33;;;21.30;;
8831;SDS011;4452;50.756;4.472;2024-03-22T02:31:53;57.42;;;25.63;;
8831;SDS011;4452;50.756;4.472;2024-03-22T02:34:18;41.90;;;20.60;;
8831;SDS011;4452;50.756;4.472;2024-03-22T02:36:44;46.00;;;22.83;;
8831;SDS011;4452;50.756;4.472;2024-03-22T02:39:10;48.67;;;22.27;;
8831;SDS011;4452;50.756;4.472;2024-03-22T02:41:36;56.97;;;26.98;;
8831;SDS011;4452;50.756;4.472;2024-03-22T02:44:01;49.03;;;21.85;;
8831;SDS011;4452;50.756;4.472;2024-03-22T02:46:27;48.90;;;22.48;;
8831;SDS011;4452;50.756;4.472;2024-03-22T02:48:53;56.53;;;20.05;;
8831;SDS011;4452;50.756;4.472;2024-03-22T02:51:18;45.80;;;23.85;;
8831;SDS011;4452;50.756;4.472;2024-03-22T02:53:44;42.10;;;21.83;;
8831;SDS011;4452;50.756;4.472;2024-03-22T02:56:10;51.72;;;24.20;;
8831;SDS011;4452;50.756;4.472;2024-03-22T02:58:35;53.38;;;24.55;;
8831;SDS011;4452;50.756;4.472;2024-03-22T03:01:01;43.83;;;21.35;;
8831;SDS011;4452;50.756;4.472;2024-03-22T03:03:28;36.50;;;19.02;;
8831;SDS011;4452;50.756;4.472;2024-03-22T03:05:54;44.85;;;22.27;;
8831;SDS011;4452;50.756;4.472;2024-03-22T03:08:20;33.60;;;17.20;;
8831;SDS011;4452;50.756;4.472;2024-03-22T03:10:46;46.80;;;22.25;;
8831;SDS011;4452;50.756;4.472;2024-03-22T03:13:12;31.45;;;15.55;;
8831;SDS011;4452;50.756;4.472;2024-03-22T03:15:37;43.03;;;20.02;;
8831;SDS011;4452;50.756;4.472;2024-03-22T03:18:03;36.00;;;17.30;;
8831;SDS011;4452;50.756;4.472;2024-03-22T03:20:29;41.58;;;20.70;;
8831;SDS011;4452;50.756;4.472;2024-03-22T03:22:54;30.13;;;14.80;;
8831;SDS011;4452;50.756;4.472;2024-03-22T03:25:22;32.28;;;16.63;;
8831;SDS011;4452;50.756;4.472;2024-03-22T03:27:48;31.73;;;17.90;;
8831;SDS011;4452;50.756;4.472;2024-03-22T03:30:14;35.45;;;17.70;;
8831;SDS011;4452;50.756;4.472;2024-03-22T03:32:40;39.22;;;19.65;;
8831;SDS011;4452;50.756;4.472;2024-03-22T03:35:06;19.90;;;12.30;;
8831;SDS011;4452;50.756;4.472;2024-03-22T03:37:32;32.58;;;17.13;;
8831;SDS011;4452;50.756;4.472;2024-03-22T03:39:57;31.65;;;17.88;;
8831;SDS011;4452;50.756;4.472;2024-03-22T03:42:23;33.15;;;18.02;;
8831;SDS011;4452;50.756;4.472;2024-03-22T03:44:49;27.40;;;16.05;;
8831;SDS011;4452;50.756;4.472;2024-03-22T03:47:15;30.92;;;16.67;;
8831;SDS011;4452;50.756;4.472;2024-03-22T03:49:40;40.47;;;18.25;;
8831;SDS011;4452;50.756;4.472;2024-03-22T03:52:06;33.55;;;16.83;;
8831;SDS011;4452;50.756;4.472;2024-03-22T03:54:32;25.15;;;14.38;;
8831;SDS011;4452;50.756;4.472;2024-03-22T03:56:57;28.65;;;15.05;;
8831;SDS011;4452;50.756;4.472;2024-03-22T03:59:23;23.15;;;13.35;;
8831;SDS011;4452;50.756;4.472;2024-03-22T04:01:49;18.10;;;10.43;;
8831;SDS011;4452;50.756;4.472;2024-03-22T04:04:15;15.35;;;9.88;;
8831;SDS011;4452;50.756;4.472;2024-03-22T04:06:41;29.42;;;16.05;;
8831;SDS011;4452;50.756;4.472;2024-03-22T04:09:08;30.17;;;16.58;;
8831;SDS011;4452;50.756;4.472;2024-03-22T04:11:34;29.70;;;15.23;;
8831;SDS011;4452;50.756;4.472;2024-03-22T04:14:00;30.40;;;16.20;;
8831;SDS011;4452;50.756;4.472;2024-03-22T04:16:26;30.98;;;17.38;;
8831;SDS011;4452;50.756;4.472;2024-03-22T04:18:52;28.45;;;14.98;;
8831;SDS011;4452;50.756;4.472;2024-03-22T04:21:18;25.85;;;14.13;;
8831;SDS011;4452;50.756;4.472;2024-03-22T04:23:44;27.58;;;16.40;;
8831;SDS011;4452;50.756;4.472;2024-03-22T04:26:09;26.33;;;13.32;;
8831;SDS011;4452;50.756;4.472;2024-03-22T04:28:35;27.90;;;13.35;;
8831;SDS011;4452;50.756;4.472;2024-03-22T04:31:05;30.75;;;14.63;;
8831;SDS011;4452;50.756;4.472;2024-03-22T04:33:36;22.15;;;12.95;;
8831;SDS011;4452;50.756;4.472;2024-03-22T04:36:02;25.05;;;13.88;;
8831;SDS011;4452;50.756;4.472;2024-03-22T04:38:29;24.52;;;12.93;;
8831;SDS011;4452;50.756;4.472;2024-03-22T04:40:55;23.63;;;14.18;;
8831;SDS011;4452;50.756;4.472;2024-03-22T04:43:23;28.48;;;14.50;;
8831;SDS011;4452;50.756;4.472;2024-03-22T04:45:49;32.42;;;13.93;;
8831;SDS011;4452;50.756;4.472;2024-03-22T04:48:19;21.50;;;11.93;;
8831;SDS011;4452;50.756;4.472;2024-03-22T04:50:46;28.60;;;15.20;;
8831;SDS011;4452;50.756;4.472;2024-03-22T04:53:14;25.02;;;13.63;;
8831;SDS011;4452;50.756;4.472;2024-03-22T04:55:50;21.77;;;12.75;;
8831;SDS011;4452;50.756;4.472;2024-03-22T04:58:17;20.15;;;10.38;;
8831;SDS011;4452;50.756;4.472;2024-03-22T05:00:44;26.63;;;14.60;;
8831;SDS011;4452;50.756;4.472;2024-03-22T05:03:10;22.63;;;14.77;;
8831;SDS011;4452;50.756;4.472;2024-03-22T05:05:36;26.70;;;14.23;;
8831;SDS011;4452;50.756;4.472;2024-03-22T05:08:02;24.65;;;12.80;;
8831;SDS011;4452;50.756;4.472;2024-03-22T05:10:28;25.85;;;13.38;;
8831;SDS011;4452;50.756;4.472;2024-03-22T05:12:55;30.63;;;13.98;;
8831;SDS011;4452;50.756;4.472;2024-03-22T05:15:22;28.98;;;14.68;;
8831;SDS011;4452;50.756;4.472;2024-03-22T05:17:48;25.88;;;14.73;;
8831;SDS011;4452;50.756;4.472;2024-03-22T05:20:14;21.77;;;13.40;;
8831;SDS011;4452;50.756;4.472;2024-03-22T05:22:41;21.00;;;12.13;;
8831;SDS011;4452;50.756;4.472;2024-03-22T05:25:07;25.83;;;13.68;;
8831;SDS011;4452;50.756;4.472;2024-03-22T05:27:33;18.08;;;12.15;;
8831;SDS011;4452;50.756;4.472;2024-03-22T05:29:59;22.92;;;11.27;;
8831;SDS011;4452;50.756;4.472;2024-03-22T05:32:25;25.02;;;12.52;;
8831;SDS011;4452;50.756;4.472;2024-03-22T05:34:52;26.80;;;13.98;;
8831;SDS011;4452;50.756;4.472;2024-03-22T05:37:18;24.48;;;13.10;;
8831;SDS011;4452;50.756;4.472;2024-03-22T05:39:44;16.35;;;11.55;;
8831;SDS011;4452;50.756;4.472;2024-03-22T05:42:09;24.92;;;13.20;;
8831;SDS011;4452;50.756;4.472;2024-03-22T05:44:35;22.75;;;12.50;;
8831;SDS011;4452;50.756;4.472;2024-03-22T05:47:01;25.05;;;13.38;;
8831;SDS011;4452;50.756;4.472;2024-03-22T05:49:26;29.67;;;14.57;;
8831;SDS011;4452;50.756;4.472;2024-03-22T05:51:52;25.08;;;13.48;;
8831;SDS011;4452;50.756;4.472;2024-03-22T05:54:18;21.55;;;12.07;;
8831;SDS011;4452;50.756;4.472;2024-03-22T05:56:45;27.45;;;14.52;;
8831;SDS011;4452;50.756;4.472;2024-03-22T05:59:10;20.83;;;13.27;;
8831;SDS011;4452;50.756;4.472;2024-03-22T06:01:36;27.33;;;15.40;;
8831;SDS011;4452;50.756;4.472;2024-03-22T06:04:03;28.23;;;16.10;;
8831;SDS011;4452;50.756;4.472;2024-03-22T06:06:33;28.80;;;14.98;;
8831;SDS011;4452;50.756;4.472;2024-03-22T06:09:00;28.60;;;15.63;;
8831;SDS011;4452;50.756;4.472;2024-03-22T06:11:29;35.20;;;17.45;;
8831;SDS011;4452;50.756;4.472;2024-03-22T06:13:55;31.48;;;16.98;;
8831;SDS011;4452;50.756;4.472;2024-03-22T06:16:21;29.02;;;16.20;;
8831;SDS011;4452;50.756;4.472;2024-03-22T06:18:47;33.70;;;17.23;;
8831;SDS011;4452;50.756;4.472;2024-03-22T06:21:13;37.67;;;17.23;;
8831;SDS011;4452;50.756;4.472;2024-03-22T06:23:48;23.63;;;14.82;;
8831;SDS011;4452;50.756;4.472;2024-03-22T06:26:14;31.63;;;16.52;;
8831;SDS011;4452;50.756;4.472;2024-03-22T06:28:40;32.33;;;15.73;;
8831;SDS011;4452;50.756;4.472;2024-03-22T06:31:07;31.98;;;16.25;;
8831;SDS011;4452;50.756;4.472;2024-03-22T06:33:33;28.25;;;15.68;;
8831;SDS011;4452;50.756;4.472;2024-03-22T06:35:58;33.33;;;18.05;;
8831;SDS011;4452;50.756;4.472;2024-03-22T06:38:25;31.63;;;16.88;;
8831;SDS011;4452;50.756;4.472;2024-03-22T06:40:50;25.33;;;14.30;;
8831;SDS011;4452;50.756;4.472;2024-03-22T06:43:16;21.20;;;13.10;;
8831;SDS011;4452;50.756;4.472;2024-03-22T06:45:42;32.10;;;17.08;;
8831;SDS011;4452;50.756;4.472;2024-03-22T06:48:07;18.10;;;12.80;;
8831;SDS011;4452;50.756;4.472;2024-03-22T06:50:33;28.52;;;13.80;;
8831;SDS011;4452;50.756;4.472;2024-03-22T06:53:00;12.50;;;9.35;;
8831;SDS011;4452;50.756;4.472;2024-03-22T06:55:25;21.75;;;13.73;;
8831;SDS011;4452;50.756;4.472;2024-03-22T06:57:51;30.60;;;15.38;;
8831;SDS011;4452;50.756;4.472;2024-03-22T07:00:17;22.67;;;13.18;;
8831;SDS011;4452;50.756;4.472;2024-03-22T07:02:43;24.52;;;13.77;;
8831;SDS011;4452;50.756;4.472;2024-03-22T07:05:09;22.90;;;12.32;;
8831;SDS011;4452;50.756;4.472;2024-03-22T07:07:36;18.27;;;12.75;;
8831;SDS011;4452;50.756;4.472;2024-03-22T07:10:02;25.50;;;12.68;;
8831;SDS011;4452;50.756;4.472;2024-03-22T07:12:30;23.40;;;12.90;;
8831;SDS011;4452;50.756;4.472;2024-03-22T07:14:57;17.67;;;11.68;;
8831;SDS011;4452;50.756;4.472;2024-03-22T07:17:24;14.02;;;9.75;;
8831;SDS011;4452;50.756;4.472;2024-03-22T07:19:50;24.05;;;13.50;;
8831;SDS011;4452;50.756;4.472;2024-03-22T07:22:16;29.48;;;11.85;;
8831;SDS011;4452;50.756;4.472;2024-03-22T07:24:42;23.13;;;12.55;;
8831;SDS011;4452;50.756;4.472;2024-03-22T07:27:08;25.35;;;13.95;;
8831;SDS011;4452;50.756;4.472;2024-03-22T07:29:34;23.63;;;12.80;;
8831;SDS011;4452;50.756;4.472;2024-03-22T07:32:00;26.60;;;12.82;;
8831;SDS011;4452;50.756;4.472;2024-03-22T07:34:26;23.08;;;12.82;;
8831;SDS011;4452;50.756;4.472;2024-03-22T07:36:51;26.27;;;14.35;;
8831;SDS011;4452;50.756;4.472;2024-03-22T07:39:17;21.77;;;13.30;;
8831;SDS011;4452;50.756;4.472;2024-03-22T07:41:43;24.20;;;12.77;;
8831;SDS011;4452;50.756;4.472;2024-03-22T07:44:08;30.50;;;14.23;;
8831;SDS011;4452;50.756;4.472;2024-03-22T07:46:34;29.63;;;14.98;;
8831;SDS011;4452;50.756;4.472;2024-03-22T07:49:00;20.15;;;12.35;;
8831;SDS011;4452;50.756;4.472;2024-03-22T07:51:25;27.73;;;12.45;;
8831;SDS011;4452;50.756;4.472;2024-03-22T07:53:52;25.33;;;12.60;;
8831;SDS011;4452;50.756;4.472;2024-03-22T07:56:17;23.50;;;12.98;;
8831;SDS011;4452;50.756;4.472;2024-03-22T07:58:44;24.45;;;12.90;;
8831;SDS011;4452;50.756;4.472;2024-03-22T08:01:09;29.65;;;13.90;;
8831;SDS011;4452;50.756;4.472;2024-03-22T08:03:35;21.88;;;12.48;;
8831;SDS011;4452;50.756;4.472;2024-03-22T08:06:01;23.02;;;11.73;;
8831;SDS011;4452;50.756;4.472;2024-03-22T08:08:27;26.77;;;13.07;;
8831;SDS011;4452;50.756;4.472;2024-03-22T08:10:52;28.90;;;15.10;;
8831;SDS011;4452;50.756;4.472;2024-03-22T08:13:18;27.52;;;14.98;;
8831;SDS011;4452;50.756;4.472;2024-03-22T08:15:44;20.38;;;12.70;;
8831;SDS011;4452;50.756;4.472;2024-03-22T08:18:13;23.65;;;12.15;;
8831;SDS011;4452;50.756;4.472;2024-03-22T08:20:39;28.67;;;13.13;;
8831;SDS011;4452;50.756;4.472;2024-03-22T08:23:05;16.77;;;10.27;;
8831;SDS011;4452;50.756;4.472;2024-03-22T08:25:31;18.55;;;10.65;;
8831;SDS011;4452;50.756;4.472;2024-03-22T08:27:57;20.40;;;11.18;;
8831;SDS011;4452;50.756;4.472;2024-03-22T08:30:23;23.95;;;13.48;;
8831;SDS011;4452;50.756;4.472;2024-03-22T08:32:50;18.33;;;11.90;;
8831;SDS011;4452;50.756;4.472;2024-03-22T08:35:16;22.30;;;12.00;;
8831;SDS011;4452;50.756;4.472;2024-03-22T08:37:41;20.92;;;13.02;;
8831;SDS011;4452;50.756;4.472;2024-03-22T08:40:07;22.08;;;11.00;;
8831;SDS011;4452;50.756;4.472;2024-03-22T08:42:33;14.80;;;9.73;;
8831;SDS011;4452;50.756;4.472;2024-03-22T08:44:59;21.88;;;11.05;;
8831;SDS011;4452;50.756;4.472;2024-03-22T08:47:25;20.77;;;11.82;;
8831;SDS011;4452;50.756;4.472;2024-03-22T08:49:51;23.02;;;10.85;;
8831;SDS011;4452;50.756;4.472;2024-03-22T08:52:16;17.08;;;9.30;;
8831;SDS011;4452;50.756;4.472;2024-03-22T08:54:42;23.15;;;13.27;;
8831;SDS011;4452;50.756;4.472;2024-03-22T08:57:08;21.55;;;11.43;;
8831;SDS011;4452;50.756;4.472;2024-03-22T08:59:34;19.88;;;10.30;;
8831;SDS011;4452;50.756;4.472;2024-03-22T09:02:00;15.90;;;9.32;;
8831;SDS011;4452;50.756;4.472;2024-03-22T09:04:26;21.83;;;11.52;;
8831;SDS011;4452;50.756;4.472;2024-03-22T09:06:51;21.65;;;11.05;;
8831;SDS011;4452;50.756;4.472;2024-03-22T09:09:17;27.35;;;13.23;;
8831;SDS011;4452;50.756;4.472;2024-03-22T09:11:43;20.15;;;11.45;;
8831;SDS011;4452;50.756;4.472;2024-03-22T09:14:09;14.45;;;9.73;;
8831;SDS011;4452;50.756;4.472;2024-03-22T09:16:34;26.65;;;14.75;;
8831;SDS011;4452;50.756;4.472;2024-03-22T09:19:00;25.70;;;12.98;;
8831;SDS011;4452;50.756;4.472;2024-03-22T09:21:26;22.02;;;11.38;;
8831;SDS011;4452;50.756;4.472;2024-03-22T09:23:52;24.92;;;13.10;;
8831;SDS011;4452;50.756;4.472;2024-03-22T09:26:17;23.55;;;12.73;;
8831;SDS011;4452;50.756;4.472;2024-03-22T09:28:45;18.90;;;12.60;;
8831;SDS011;4452;50.756;4.472;2024-03-22T09:31:11;26.58;;;14.43;;
8831;SDS011;4452;50.756;4.472;2024-03-22T09:33:37;19.65;;;10.95;;
8831;SDS011;4452;50.756;4.472;2024-03-22T09:36:03;20.70;;;12.77;;
8831;SDS011;4452;50.756;4.472;2024-03-22T09:38:28;22.38;;;13.80;;
8831;SDS011;4452;50.756;4.472;2024-03-22T09:40:55;29.10;;;17.92;;
8831;SDS011;4452;50.756;4.472;2024-03-22T09:43:21;24.95;;;14.15;;
8831;SDS011;4452;50.756;4.472;2024-03-22T09:45:47;20.27;;;13.20;;
8831;SDS011;4452;50.756;4.472;2024-03-22T09:48:16;25.10;;;15.18;;
8831;SDS011;4452;50.756;4.472;2024-03-22T09:50:43;23.77;;;14.15;;
8831;SDS011;4452;50.756;4.472;2024-03-22T09:53:11;13.20;;;11.07;;
8831;SDS011;4452;50.756;4.472;2024-03-22T09:55:38;24.02;;;13.38;;
8831;SDS011;4452;50.756;4.472;2024-03-22T09:58:08;15.77;;;11.30;;
8831;SDS011;4452;50.756;4.472;2024-03-22T10:00:35;14.88;;;9.63;;
8831;SDS011;4452;50.756;4.472;2024-03-22T10:03:01;20.02;;;11.07;;
8831;SDS011;4452;50.756;4.472;2024-03-22T10:05:28;14.38;;;9.75;;
8831;SDS011;4452;50.756;4.472;2024-03-22T10:07:54;20.17;;;10.93;;
8831;SDS011;4452;50.756;4.472;2024-03-22T10:10:21;14.45;;;10.13;;
8831;SDS011;4452;50.756;4.472;2024-03-22T10:12:47;21.35;;;12.52;;
8831;SDS011;4452;50.756;4.472;2024-03-22T10:15:13;17.65;;;9.70;;
8831;SDS011;4452;50.756;4.472;2024-03-22T10:17:39;19.17;;;9.52;;
8831;SDS011;4452;50.756;4.472;2024-03-22T10:20:05;26.25;;;12.95;;
8831;SDS011;4452;50.756;4.472;2024-03-22T10:22:48;21.67;;;12.75;;
8831;SDS011;4452;50.756;4.472;2024-03-22T10:25:20;16.23;;;12.55;;
8831;SDS011;4452;50.756;4.472;2024-03-22T10:27:47;23.13;;;12.15;;
8831;SDS011;4452;50.756;4.472;2024-03-22T10:30:13;16.90;;;11.52;;
8831;SDS011;4452;50.756;4.472;2024-03-22T10:32:44;15.45;;;10.27;;
8831;SDS011;4452;50.756;4.472;2024-03-22T10:35:13;17.65;;;10.43;;
8831;SDS011;4452;50.756;4.472;2024-03-22T10:37:40;21.23;;;11.45;;
8831;SDS011;4452;50.756;4.472;2024-03-22T10:40:07;19.92;;;12.15;;
8831;SDS011;4452;50.756;4.472;2024-03-22T10:42:37;15.77;;;10.68;;
8831;SDS011;4452;50.756;4.472;2024-03-22T10:45:04;17.92;;;11.65;;
8831;SDS011;4452;50.756;4.472;2024-03-22T10:47:32;19.35;;;10.98;;
8831;SDS011;4452;50.756;4.472;2024-03-22T10:50:09;12.77;;;8.75;;
8831;SDS011;4452;50.756;4.472;2024-03-22T10:52:37;17.58;;;11.02;;
8831;SDS011;4452;50.756;4.472;2024-03-22T10:55:08;21.27;;;12.32;;
8831;SDS011;4452;50.756;4.472;2024-03-22T10:57:41;20.27;;;12.45;;
8831;SDS011;4452;50.756;4.472;2024-03-22T11:00:08;16.33;;;10.45;;
8831;SDS011;4452;50.756;4.472;2024-03-22T11:02:37;13.93;;;9.48;;
8831;SDS011;4452;50.756;4.472;2024-03-22T11:05:06;12.45;;;9.23;;
8831;SDS011;4452;50.756;4.472;2024-03-22T11:07:32;13.43;;;7.38;;
8831;SDS011;4452;50.756;4.472;2024-03-22T11:10:00;22.20;;;10.13;;
8831;SDS011;4452;50.756;4.472;2024-03-22T11:12:27;18.27;;;12.15;;
8831;SDS011;4452;50.756;4.472;2024-03-22T11:14:55;17.85;;;10.68;;
8831;SDS011;4452;50.756;4.472;2024-03-22T11:17:21;15.70;;;10.57;;
8831;SDS011;4452;50.756;4.472;2024-03-22T11:19:50;15.65;;;11.20;;
8831;SDS011;4452;50.756;4.472;2024-03-22T11:22:17;18.95;;;10.40;;
8831;SDS011;4452;50.756;4.472;2024-03-22T11:24:42;16.23;;;10.88;;
8831;SDS011;4452;50.756;4.472;2024-03-22T11:27:09;19.88;;;12.27;;
8831;SDS011;4452;50.756;4.472;2024-03-22T11:29:36;18.27;;;10.27;;
8831;SDS011;4452;50.756;4.472;2024-03-22T11:32:09;14.73;;;10.23;;
8831;SDS011;4452;50.756;4.472;2024-03-22T11:34:37;17.30;;;9.98;;
8831;SDS011;4452;50.756;4.472;2024-03-22T11:37:05;16.25;;;10.18;;
8831;SDS011;4452;50.756;4.472;2024-03-22T11:39:36;13.60;;;8.88;;
8831;SDS011;4452;50.756;4.472;2024-03-22T11:42:03;17.25;;;10.35;;
8831;SDS011;4452;50.756;4.472;2024-03-22T11:44:31;14.57;;;10.00;;
8831;SDS011;4452;50.756;4.472;2024-03-22T11:46:58;16.20;;;11.15;;
8831;SDS011;4452;50.756;4.472;2024-03-22T11:49:24;11.88;;;8.48;;
8831;SDS011;4452;50.756;4.472;2024-03-22T11:51:51;12.32;;;8.48;;
8831;SDS011;4452;50.756;4.472;2024-03-22T11:54:20;13.65;;;8.95;;
8831;SDS011;4452;50.756;4.472;2024-03-22T11:56:46;14.32;;;9.35;;
8831;SDS011;4452;50.756;4.472;2024-03-22T11:59:12;16.67;;;9.43;;
8831;SDS011;4452;50.756;4.472;2024-03-22T12:01:38;10.95;;;7.93;;
8831;SDS011;4452;50.756;4.472;2024-03-22T12:04:05;15.55;;;8.63;;
8831;SDS011;4452;50.756;4.472;2024-03-22T12:06:36;24.95;;;10.10;;
8831;SDS011;4452;50.756;4.472;2024-03-22T12:09:02;14.40;;;8.48;;
8831;SDS011;4452;50.756;4.472;2024-03-22T12:11:28;17.38;;;9.10;;
8831;SDS011;4452;50.756;4.472;2024-03-22T12:13:54;19.15;;;9.35;;
8831;SDS011;4452;50.756;4.472;2024-03-22T12:16:20;12.95;;;8.60;;
8831;SDS011;4452;50.756;4.472;2024-03-22T12:18:45;19.90;;;10.65;;
8831;SDS011;4452;50.756;4.472;2024-03-22T12:21:11;18.42;;;10.23;;
8831;SDS011;4452;50.756;4.472;2024-03-22T12:23:37;16.83;;;9.43;;
8831;SDS011;4452;50.756;4.472;2024-03-22T12:26:02;19.42;;;9.43;;
8831;SDS011;4452;50.756;4.472;2024-03-22T12:28:28;24.05;;;10.38;;
8831;SDS011;4452;50.756;4.472;2024-03-22T12:30:54;15.57;;;10.05;;
8831;SDS011;4452;50.756;4.472;2024-03-22T12:33:20;14.25;;;8.10;;
8831;SDS011;4452;50.756;4.472;2024-03-22T12:35:45;14.23;;;9.80;;
8831;SDS011;4452;50.756;4.472;2024-03-22T12:38:13;18.05;;;10.13;;
8831;SDS011;4452;50.756;4.472;2024-03-22T12:40:39;16.70;;;10.15;;
8831;SDS011;4452;50.756;4.472;2024-03-22T12:43:05;15.48;;;9.60;;
8831;SDS011;4452;50.756;4.472;2024-03-22T12:45:34;11.82;;;7.45;;
8831;SDS011;4452;50.756;4.472;2024-03-22T12:47:59;14.20;;;10.48;;
8831;SDS011;4452;50.756;4.472;2024-03-22T12:50:26;19.30;;;11.07;;
8831;SDS011;4452;50.756;4.472;2024-03-22T12:52:51;15.73;;;10.75;;
8831;SDS011;4452;50.756;4.472;2024-03-22T12:55:17;22.48;;;10.80;;
8831;SDS011;4452;50.756;4.472;2024-03-22T12:57:43;20.42;;;9.60;;
8831;SDS011;4452;50.756;4.472;2024-03-22T13:00:09;20.45;;;9.88;;
8831;SDS011;4452;50.756;4.472;2024-03-22T13:02:39;18.05;;;9.88;;
8831;SDS011;4452;50.756;4.472;2024-03-22T13:05:05;20.08;;;11.82;;
8831;SDS011;4452;50.756;4.472;2024-03-22T13:07:31;21.98;;;11.30;;
8831;SDS011;4452;50.756;4.472;2024-03-22T13:09:57;11.63;;;9.00;;
8831;SDS011;4452;50.756;4.472;2024-03-22T13:12:25;21.70;;;10.40;;
8831;SDS011;4452;50.756;4.472;2024-03-22T13:14:51;19.52;;;11.32;;
8831;SDS011;4452;50.756;4.472;2024-03-22T13:17:17;22.40;;;11.23;;
8831;SDS011;4452;50.756;4.472;2024-03-22T13:19:43;21.52;;;10.60;;
8831;SDS011;4452;50.756;4.472;2024-03-22T13:22:12;16.73;;;9.70;;
8831;SDS011;4452;50.756;4.472;2024-03-22T13:24:47;17.77;;;9.83;;
8831;SDS011;4452;50.756;4.472;2024-03-22T13:27:15;20.17;;;9.13;;
8831;SDS011;4452;50.756;4.472;2024-03-22T13:29:41;16.45;;;10.25;;
8831;SDS011;4452;50.756;4.472;2024-03-22T13:32:07;19.02;;;8.95;;
8831;SDS011;4452;50.756;4.472;2024-03-22T13:34:39;16.73;;;10.43;;
8831;SDS011;4452;50.756;4.472;2024-03-22T13:37:04;15.13;;;10.02;;
8831;SDS011;4452;50.756;4.472;2024-03-22T13:39:33;20.50;;;10.23;;
8831;SDS011;4452;50.756;4.472;2024-03-22T13:41:58;19.02;;;10.38;;
8831;SDS011;4452;50.756;4.472;2024-03-22T13:44:24;17.98;;;10.73;;
8831;SDS011;4452;50.756;4.472;2024-03-22T13:46:50;18.65;;;11.60;;
8831;SDS011;4452;50.756;4.472;2024-03-22T13:49:16;19.60;;;10.77;;
8831;SDS011;4452;50.756;4.472;2024-03-22T13:51:45;18.08;;;10.75;;
8831;SDS011;4452;50.756;4.472;2024-03-22T13:54:12;14.15;;;9.60;;
8831;SDS011;4452;50.756;4.472;2024-03-22T13:56:38;14.68;;;9.85;;
8831;SDS011;4452;50.756;4.472;2024-03-22T13:59:04;19.30;;;10.30;;
8831;SDS011;4452;50.756;4.472;2024-03-22T14:01:32;16.40;;;10.15;;
8831;SDS011;4452;50.756;4.472;2024-03-22T14:03:59;21.45;;;10.38;;
8831;SDS011;4452;50.756;4.472;2024-03-22T14:06:28;18.40;;;10.73;;
8831;SDS011;4452;50.756;4.472;2024-03-22T14:08:59;16.92;;;10.73;;
8831;SDS011;4452;50.756;4.472;2024-03-22T14:11:30;20.02;;;11.65;;
8831;SDS011;4452;50.756;4.472;2024-03-22T14:13:57;16.58;;;10.15;;
8831;SDS011;4452;50.756;4.472;2024-03-22T14:16:23;18.95;;;12.13;;
8831;SDS011;4452;50.756;4.472;2024-03-22T14:18:49;23.27;;;11.73;;
8831;SDS011;4452;50.756;4.472;2024-03-22T14:21:15;27.38;;;12.45;;
8831;SDS011;4452;50.756;4.472;2024-03-22T14:23:45;18.27;;;12.20;;
8831;SDS011;4452;50.756;4.472;2024-03-22T14:26:12;23.45;;;12.85;;
8831;SDS011;4452;50.756;4.472;2024-03-22T14:28:38;19.92;;;11.35;;
8831;SDS011;4452;50.756;4.472;2024-03-22T14:31:06;12.65;;;9.27;;
8831;SDS011;4452;50.756;4.472;2024-03-22T14:33:34;24.73;;;13.10;;
8831;SDS011;4452;50.756;4.472;2024-03-22T14:36:00;19.00;;;12.65;;
8831;SDS011;4452;50.756;4.472;2024-03-22T14:38:29;21.38;;;13.15;;
8831;SDS011;4452;50.756;4.472;2024-03-22T14:40:56;23.92;;;12.27;;
8831;SDS011;4452;50.756;4.472;2024-03-22T14:43:23;16.80;;;11.63;;
8831;SDS011;4452;50.756;4.472;2024-03-22T14:45:53;21.73;;;13.48;;